createdAt,value
2024-04-18T00:01:20.068Z,4.82
2024-04-18T00:04:23.068Z,6.43
2024-04-18T00:07:25.880Z,2.45
2024-04-18T00:10:55.931Z,5.30
2024-04-18T00:14:24.537Z,5.30
2024-04-18T00:17:47.229Z,2.17
2024-04-18T00:20:58.551Z,5.57
2024-04-18T00:24:01.202Z,4.75
2024-04-18T00:27:22.623Z,7.40
2024-04-18T00:30:26.164Z,8.43
2024-04-18T00:33:29.101Z,5.47
2024-04-18T00:36:33.638Z,3.42
2024-04-18T00:39:56.285Z,5.00
2024-04-18T00:43:14.111Z,3.53
2024-04-18T00:46:17.005Z,3.67
2024-04-18T00:49:32.761Z,5.55
2024-04-18T00:52:35.358Z,3.93
2024-04-18T00:55:41.169Z,3.65
2024-04-18T00:58:51.436Z,3.25
2024-04-18T01:01:57.043Z,3.80
2024-04-18T01:05:19.948Z,5.32
2024-04-18T01:08:23.131Z,5.45
2024-04-18T01:11:32.844Z,4.80
2024-04-18T01:14:35.670Z,4.00
2024-04-18T01:17:39.132Z,4.28
2024-04-18T01:20:41.764Z,5.10
2024-04-18T01:23:45.944Z,6.00
2024-04-18T01:26:48.535Z,4.85
2024-04-18T01:29:51.127Z,6.18
2024-04-18T01:33:12.661Z,5.53
2024-04-18T01:36:15.449Z,4.35
2024-04-18T01:39:26.439Z,4.05
2024-04-18T01:42:39.468Z,6.95
2024-04-18T01:45:59.431Z,4.75
2024-04-18T01:49:02.112Z,4.20
2024-04-18T01:52:23.200Z,4.35
2024-04-18T01:55:25.891Z,4.77
2024-04-18T01:58:44.425Z,2.72
2024-04-18T02:01:47.090Z,5.18
2024-04-18T02:04:49.832Z,2.93
2024-04-18T02:08:12.434Z,4.32
2024-04-18T02:11:20.508Z,4.40
2024-04-18T02:14:42.305Z,5.45
2024-04-18T02:17:45.033Z,4.47
2024-04-18T02:20:47.657Z,2.97
2024-04-18T02:23:56.486Z,2.70
2024-04-18T02:26:59.257Z,4.30
2024-04-18T02:30:05.392Z,3.88
2024-04-18T02:33:16.365Z,3.88
2024-04-18T02:36:22.301Z,1.83
2024-04-18T02:39:25.047Z,3.70
2024-04-18T02:42:27.906Z,2.88
2024-04-18T02:45:33.813Z,4.68
2024-04-18T02:48:55.402Z,2.33
2024-04-18T02:52:01.001Z,5.25
2024-04-18T02:55:22.599Z,2.95
2024-04-18T02:58:31.309Z,5.97
2024-04-18T03:01:52.412Z,3.90
2024-04-18T03:04:55.022Z,3.47
2024-04-18T03:08:00.179Z,6.20
2024-04-18T03:11:20.734Z,5.85
2024-04-18T03:14:43.345Z,4.00
2024-04-18T03:17:48.776Z,3.53
2024-04-18T03:21:10.872Z,3.20
2024-04-18T03:24:22.596Z,5.13
2024-04-18T03:27:25.370Z,5.30
2024-04-18T03:30:28.006Z,5.70
2024-04-18T03:33:43.733Z,4.53
2024-04-18T03:36:49.371Z,5.28
2024-04-18T03:40:05.800Z,2.90
2024-04-18T03:43:08.463Z,3.60
2024-04-18T03:46:11.139Z,4.95
2024-04-18T03:49:33.946Z,4.38
2024-04-18T03:52:36.571Z,2.58
2024-04-18T03:55:59.428Z,4.40
2024-04-18T03:59:02.132Z,3.35
2024-04-18T04:02:04.820Z,4.20
2024-04-18T04:05:07.519Z,4.35
2024-04-18T04:08:10.728Z,5.53
2024-04-18T04:11:19.865Z,6.10
2024-04-18T04:14:22.654Z,5.93
2024-04-18T04:17:28.603Z,7.22
2024-04-18T04:20:42.607Z,2.78
2024-04-18T04:23:45.279Z,6.63
2024-04-18T04:26:47.978Z,4.85
2024-04-18T04:29:50.624Z,4.80
2024-04-18T04:32:53.277Z,3.47
2024-04-18T04:36:08.144Z,4.88
2024-04-18T04:39:11.142Z,2.85
2024-04-18T04:42:18.864Z,3.80
2024-04-18T04:45:21.451Z,3.58
2024-04-18T04:48:40.526Z,3.92
2024-04-18T04:51:46.209Z,5.13
2024-04-18T04:55:08.990Z,3.03
2024-04-18T04:58:11.610Z,1.92
2024-04-18T05:01:14.183Z,2.83
2024-04-18T05:04:16.875Z,2.67
2024-04-18T05:07:19.739Z,3.33
2024-04-18T05:10:22.405Z,2.42
2024-04-18T05:13:25.018Z,4.67
2024-04-18T05:16:47.694Z,2.45
2024-04-18T05:19:50.473Z,4.38
2024-04-18T05:23:11.628Z,3.45
2024-04-18T05:26:14.304Z,1.88
2024-04-18T05:29:38.701Z,4.32
2024-04-18T05:32:41.286Z,2.08
2024-04-18T05:35:46.803Z,1.77
2024-04-18T05:38:49.628Z,2.42
2024-04-18T05:41:52.607Z,2.42
2024-04-18T05:45:08.085Z,2.73
2024-04-18T05:48:32.035Z,2.28
2024-04-18T05:51:37.874Z,3.35
2024-04-18T05:54:59.493Z,2.80
2024-04-18T05:58:16.753Z,2.22
2024-04-18T06:01:32.726Z,2.38
2024-04-18T06:04:36.093Z,1.17
2024-04-18T06:07:58.912Z,1.90
2024-04-18T06:11:02.130Z,3.60
2024-04-18T06:14:06.085Z,2.75
2024-04-18T06:17:09.062Z,2.43
2024-04-18T06:20:26.954Z,1.30
2024-04-18T06:23:29.583Z,3.63
2024-04-18T06:26:51.084Z,3.45
2024-04-18T06:29:56.269Z,4.45
2024-04-18T06:32:59.438Z,3.95
2024-04-18T06:36:03.437Z,1.25
2024-04-18T06:39:08.831Z,1.60
2024-04-18T06:42:11.534Z,3.17
2024-04-18T06:45:16.759Z,3.00
2024-04-18T06:48:19.942Z,1.87
2024-04-18T06:51:22.731Z,1.70
2024-04-18T06:54:25.989Z,1.17
2024-04-18T06:57:29.557Z,1.02
2024-04-18T07:00:32.752Z,2.22
2024-04-18T07:03:37.984Z,3.92
2024-04-18T07:07:01.562Z,2.20
2024-04-18T07:10:15.877Z,2.63
2024-04-18T07:13:33.396Z,0.93
2024-04-18T07:16:57.472Z,3.78
2024-04-18T07:20:06.775Z,1.13
2024-04-18T07:23:09.946Z,1.15
2024-04-18T07:26:12.773Z,1.60
2024-04-18T07:29:16.419Z,0.82
2024-04-18T07:32:19.287Z,1.92
2024-04-18T07:35:24.647Z,1.45
2024-04-18T07:38:28.442Z,1.92
2024-04-18T07:41:31.299Z,0.93
2024-04-18T07:44:35.257Z,1.85
2024-04-18T07:47:39.609Z,7.30
2024-04-18T07:50:42.458Z,2.23
2024-04-18T07:53:45.207Z,1.65
2024-04-18T07:56:48.202Z,1.15
2024-04-18T07:59:53.102Z,4.13
2024-04-18T08:02:59.605Z,2.15
2024-04-18T08:06:05.431Z,0.70
2024-04-18T08:09:13.357Z,0.70
2024-04-18T08:12:25.888Z,1.40
2024-04-18T08:18:48.462Z,16.88
2024-04-18T08:21:51.395Z,3.40
2024-04-18T08:24:56.548Z,3.15
2024-04-18T08:27:59.388Z,2.75
2024-04-18T08:31:02.104Z,1.52
2024-04-18T08:34:11.641Z,2.35
2024-04-18T08:37:20.492Z,2.33
2024-04-18T08:40:23.569Z,1.23
2024-04-18T08:43:26.253Z,2.60
2024-04-18T08:46:32.820Z,0.85
2024-04-18T08:49:39.532Z,2.05
2024-04-18T08:52:45.830Z,1.13
2024-04-18T08:55:52.191Z,1.33
2024-04-18T08:58:54.905Z,1.95
2024-04-18T09:01:58.171Z,0.73
2024-04-18T09:05:00.872Z,1.05
2024-04-18T09:08:05.390Z,1.48
2024-04-18T09:11:08.663Z,1.27
2024-04-18T09:14:11.937Z,1.43
2024-04-18T09:17:15.464Z,5.38
2024-04-18T09:20:18.338Z,2.47
2024-04-18T09:23:22.502Z,1.90
2024-04-18T09:26:30.912Z,2.55
2024-04-18T09:29:33.561Z,2.42
2024-04-18T09:32:37.365Z,7.05
2024-04-18T09:35:43.802Z,3.42
2024-04-18T09:38:51.119Z,1.90
2024-04-18T09:42:02.275Z,1.70
2024-04-18T09:45:05.644Z,0.27
2024-04-18T09:48:11.433Z,1.17
2024-04-18T09:51:16.291Z,2.40
2024-04-18T09:54:20.185Z,0.80
2024-04-18T09:57:24.545Z,3.03
2024-04-18T10:00:28.820Z,0.50
2024-04-18T10:03:32.227Z,1.35
2024-04-18T10:06:39.868Z,1.35
2024-04-18T10:09:45.236Z,0.80
2024-04-18T10:12:49.015Z,1.15
2024-04-18T10:15:52.382Z,1.60
2024-04-18T10:19:27.584Z,19.60
2024-04-18T10:22:55.758Z,28.90
2024-04-18T10:26:00.181Z,24.43
2024-04-18T10:29:03.183Z,15.52
2024-04-18T10:32:06.401Z,5.95
2024-04-18T10:35:09.929Z,2.80
2024-04-18T10:38:24.078Z,2.00
2024-04-18T10:41:26.955Z,1.27
2024-04-18T10:44:30.927Z,1.67
2024-04-18T10:47:38.005Z,0.20
2024-04-18T10:50:42.048Z,1.85
2024-04-18T10:53:45.109Z,2.05
2024-04-18T10:56:47.915Z,1.37
2024-04-18T10:59:50.699Z,5.07
2024-04-18T11:02:57.510Z,0.50
2024-04-18T11:06:04.419Z,1.33
2024-04-18T11:09:07.288Z,2.30
2024-04-18T11:12:10.924Z,0.82
2024-04-18T11:15:18.582Z,0.50
2024-04-18T11:18:23.254Z,0.57
2024-04-18T11:21:26.283Z,0.60
2024-04-18T11:24:30.558Z,0.50
2024-04-18T11:27:36.918Z,0.50
2024-04-18T11:30:44.376Z,1.50
2024-04-18T11:33:49.622Z,1.25
2024-04-18T11:36:58.525Z,2.08
2024-04-18T11:40:01.787Z,1.08
2024-04-18T11:43:05.078Z,0.77
2024-04-18T11:46:07.847Z,2.15
2024-04-18T11:49:10.752Z,0.83
2024-04-18T11:52:13.864Z,0.77
2024-04-18T11:55:31.605Z,0.60
2024-04-18T11:58:58.612Z,0.70
2024-04-18T12:02:07.785Z,0.93
2024-04-18T12:05:27.454Z,0.93
2024-04-18T12:08:30.688Z,1.30
2024-04-18T12:11:33.815Z,3.13
2024-04-18T12:14:50.129Z,0.82
2024-04-18T12:18:03.490Z,0.93
2024-04-18T12:21:23.955Z,1.20
2024-04-18T12:24:26.887Z,2.65
2024-04-18T12:27:43.633Z,2.08
2024-04-18T12:31:05.147Z,0.73
2024-04-18T12:34:07.970Z,3.08
2024-04-18T12:37:10.787Z,1.15
2024-04-18T12:40:14.411Z,1.20
2024-04-18T12:43:37.227Z,0.82
2024-04-18T12:47:00.698Z,1.63
2024-04-18T12:50:20.925Z,2.53
2024-04-18T12:53:27.632Z,2.97
2024-04-18T12:56:33.576Z,3.85
2024-04-18T12:59:56.152Z,2.88
2024-04-18T13:03:02.068Z,18.03
2024-04-18T13:06:11.967Z,25.08
2024-04-18T13:09:24.872Z,24.10
2024-04-18T13:12:35.164Z,22.80
2024-04-18T13:19:01.026Z,4.75
2024-04-18T13:22:12.733Z,3.30
2024-04-18T13:25:15.572Z,2.40
2024-04-18T13:28:18.232Z,4.55
2024-04-18T13:31:40.927Z,3.05
2024-04-18T13:34:55.970Z,52.57
2024-04-18T13:38:00.506Z,74.18
2024-04-18T13:41:23.138Z,11.45
2024-04-18T13:44:25.742Z,28.83
2024-04-18T13:47:28.813Z,25.13
2024-04-18T13:50:31.656Z,44.95
2024-04-18T13:53:34.406Z,31.05
2024-04-18T13:56:57.194Z,4.33
2024-04-18T14:00:16.174Z,3.75
2024-04-18T14:03:44.536Z,3.58
2024-04-18T14:06:47.330Z,0.80
2024-04-18T14:09:50.119Z,4.68
2024-04-18T14:13:12.918Z,11.95
2024-04-18T14:16:43.859Z,3.38
2024-04-18T14:20:07.246Z,3.55
2024-04-18T14:23:24.491Z,2.83
2024-04-18T14:26:27.243Z,1.60
2024-04-18T14:29:30.177Z,1.53
2024-04-18T14:32:32.911Z,2.17
2024-04-18T14:35:38.238Z,1.25
2024-04-18T14:38:40.823Z,1.03
2024-04-18T14:41:43.435Z,2.25
2024-04-18T14:44:46.687Z,1.27
2024-04-18T14:47:49.479Z,1.13
2024-04-18T14:51:12.579Z,1.90
2024-04-18T14:54:21.557Z,1.38
2024-04-18T14:57:24.353Z,1.42
2024-04-18T15:00:50.957Z,0.40
2024-04-18T15:03:54.515Z,1.02
2024-04-18T15:06:57.309Z,2.78
2024-04-18T15:10:13.653Z,1.03
2024-04-18T15:13:32.490Z,1.88
2024-04-18T15:16:55.072Z,1.98
2024-04-18T15:19:57.943Z,2.30
2024-04-18T15:23:13.531Z,2.75
2024-04-18T15:26:17.721Z,1.55
2024-04-18T15:29:21.410Z,1.60
2024-04-18T15:32:43.004Z,1.70
2024-04-18T15:35:58.119Z,1.23
2024-04-18T15:39:00.810Z,2.08
2024-04-18T15:42:19.551Z,2.63
2024-04-18T15:45:25.135Z,5.35
2024-04-18T15:48:28.131Z,10.95
2024-04-18T15:51:30.962Z,6.10
2024-04-18T15:54:42.402Z,17.17
2024-04-18T15:57:45.140Z,25.67
2024-04-18T16:00:47.785Z,17.88
2024-04-18T16:04:09.126Z,38.57
2024-04-18T16:07:30.458Z,31.23
2024-04-18T16:10:53.192Z,3.72
2024-04-18T16:14:01.978Z,6.03
2024-04-18T16:17:06.275Z,3.00
2024-04-18T16:20:14.966Z,1.42
2024-04-18T16:23:17.590Z,2.95
2024-04-18T16:26:20.403Z,7.13
2024-04-18T16:29:23.967Z,5.78
2024-04-18T16:32:28.152Z,4.97
2024-04-18T16:35:30.967Z,8.67
2024-04-18T16:38:49.620Z,17.52
2024-04-18T16:41:59.592Z,18.15
2024-04-18T16:45:02.544Z,17.50
2024-04-18T16:48:05.710Z,17.73
2024-04-18T16:51:08.503Z,14.77
2024-04-18T16:54:29.585Z,8.10
2024-04-18T16:57:38.178Z,4.40
2024-04-18T17:01:00.419Z,1.58
2024-04-18T17:04:03.484Z,2.65
2024-04-18T17:07:07.063Z,1.90
2024-04-18T17:10:28.617Z,2.85
2024-04-18T17:13:51.444Z,3.33
2024-04-18T17:16:55.307Z,5.27
2024-04-18T17:19:58.017Z,2.17
2024-04-18T17:23:00.710Z,3.92
2024-04-18T17:26:03.429Z,3.33
2024-04-18T17:29:06.202Z,2.63
2024-04-18T17:32:14.695Z,2.10
2024-04-18T17:35:17.695Z,5.60
2024-04-18T17:38:20.882Z,2.63
2024-04-18T17:41:33.294Z,1.10
2024-04-18T17:44:54.583Z,1.10
2024-04-18T17:48:03.470Z,0.97
2024-04-18T17:51:06.359Z,1.40
2024-04-18T17:54:09.317Z,1.17
2024-04-18T17:57:12.047Z,1.63
2024-04-18T18:00:15.130Z,2.10
2024-04-18T18:03:18.270Z,3.63
2024-04-18T18:06:21.329Z,1.58
2024-04-18T18:09:24.745Z,4.47
2024-04-18T18:12:27.434Z,5.10
2024-04-18T18:15:30.114Z,5.55
2024-04-18T18:18:34.805Z,6.03
2024-04-18T18:21:39.124Z,1.80
2024-04-18T18:24:42.019Z,1.88
2024-04-18T18:27:44.756Z,1.83
2024-04-18T18:31:07.619Z,2.10
2024-04-18T18:34:14.139Z,3.03
2024-04-18T18:37:18.981Z,1.83
2024-04-18T18:40:41.693Z,1.47
2024-04-18T18:43:58.739Z,3.72
2024-04-18T18:47:01.379Z,6.05
2024-04-18T18:50:23.388Z,8.37
2024-04-18T18:53:26.301Z,11.80
2024-04-18T18:56:29.134Z,16.30
2024-04-18T18:59:50.440Z,10.32
2024-04-18T19:02:53.095Z,13.57
2024-04-18T19:06:27.294Z,11.05
2024-04-18T19:09:32.448Z,20.75
2024-04-18T19:12:35.169Z,24.37
2024-04-18T19:15:37.958Z,25.65
2024-04-18T19:18:42.752Z,19.95
2024-04-18T19:21:46.006Z,11.03
2024-04-18T19:24:48.657Z,7.55
2024-04-18T19:27:51.322Z,14.25
2024-04-18T19:30:55.723Z,14.00
2024-04-18T19:33:59.452Z,8.63
2024-04-18T19:37:05.481Z,8.65
2024-04-18T19:40:09.399Z,6.13
2024-04-18T19:43:12.808Z,4.87
2024-04-18T19:46:15.610Z,4.30
2024-04-18T19:49:42.345Z,2.92
2024-04-18T19:52:46.953Z,3.17
2024-04-18T19:55:50.945Z,3.45
2024-04-18T19:58:53.562Z,2.58
2024-04-18T20:01:56.327Z,4.40
2024-04-18T20:04:59.261Z,3.60
2024-04-18T20:08:01.958Z,3.20
2024-04-18T20:11:04.662Z,2.65
2024-04-18T20:14:07.417Z,2.33
2024-04-18T20:17:13.905Z,5.97
2024-04-18T20:20:18.161Z,8.45
2024-04-18T20:23:21.458Z,19.37
2024-04-18T20:26:24.694Z,18.50
2024-04-18T20:29:48.414Z,6.93
2024-04-18T20:32:58.116Z,3.10
2024-04-18T20:36:00.820Z,5.07
2024-04-18T20:39:03.950Z,2.13
2024-04-18T20:42:08.101Z,1.80
2024-04-18T20:45:11.052Z,5.37
2024-04-18T20:48:13.978Z,1.63
2024-04-18T20:51:18.978Z,6.75
2024-04-18T20:54:21.755Z,1.70
2024-04-18T20:57:27.362Z,1.77
2024-04-18T21:00:30.669Z,1.75
2024-04-18T21:03:34.027Z,4.05
2024-04-18T21:06:36.944Z,1.42
2024-04-18T21:09:39.682Z,3.70
2024-04-18T21:12:43.078Z,1.83
2024-04-18T21:15:45.973Z,1.40
2024-04-18T21:18:48.757Z,3.38
2024-04-18T21:21:51.766Z,3.67
2024-04-18T21:24:54.588Z,1.77
2024-04-18T21:27:57.562Z,2.03
2024-04-18T21:31:00.447Z,2.13
2024-04-18T21:34:05.704Z,3.10
2024-04-18T21:37:08.545Z,5.70
2024-04-18T21:40:11.639Z,3.38
2024-04-18T21:43:17.039Z,5.40
2024-04-18T21:46:19.826Z,2.33
2024-04-18T21:49:22.559Z,2.03
2024-04-18T21:52:25.330Z,2.80
2024-04-18T21:55:28.488Z,1.40
2024-04-18T21:58:31.160Z,2.83
2024-04-18T22:01:33.871Z,3.03
2024-04-18T22:04:36.541Z,3.20
2024-04-18T22:07:42.488Z,2.05
2024-04-18T22:10:45.293Z,4.45
2024-04-18T22:13:47.945Z,3.13
2024-04-18T22:17:06.001Z,1.67
2024-04-18T22:20:09.176Z,3.10
2024-04-18T22:23:12.099Z,3.05
2024-04-18T22:26:14.699Z,5.77
2024-04-18T22:29:17.358Z,5.00
2024-04-18T22:32:20.066Z,5.20
2024-04-18T22:35:23.445Z,5.57
2024-04-18T22:38:26.030Z,5.20
2024-04-18T22:41:28.787Z,3.47
2024-04-18T22:44:31.460Z,3.90
2024-04-18T22:47:34.260Z,3.10
2024-04-18T22:50:37.204Z,3.47
2024-04-18T22:53:40.050Z,3.78
2024-04-18T22:56:42.644Z,4.20
2024-04-18T22:59:47.193Z,3.70
2024-04-18T23:02:49.835Z,3.75
2024-04-18T23:06:11.542Z,3.33
2024-04-18T23:09:17.238Z,5.40
2024-04-18T23:12:19.992Z,2.85
2024-04-18T23:15:22.703Z,1.25
2024-04-18T23:18:25.564Z,6.00
2024-04-18T23:21:28.348Z,2.38
2024-04-18T23:24:31.195Z,4.57
2024-04-18T23:27:33.926Z,2.10
2024-04-18T23:30:37.931Z,2.50
2024-04-18T23:33:40.635Z,1.85
2024-04-18T23:36:43.427Z,2.40
2024-04-18T23:39:46.243Z,2.35
2024-04-18T23:42:48.982Z,2.08
2024-04-18T23:45:51.785Z,1.27
2024-04-18T23:48:54.667Z,3.23
2024-04-18T23:51:57.494Z,4.07
2024-04-18T23:55:00.128Z,4.53
2024-04-18T23:58:02.820Z,3.07
